sensor_id;sensor_type;location;lat;lon;timestamp;P1;durP1;ratioP1;P2;durP2;ratioP2
6177;SDS011;3122;48.208;11.174;2024-03-08T00:04:03;26.93;;;14.40;;
6177;SDS011;3122;48.208;11.174;2024-03-08T00:09:03;25.50;;;13.90;;
6177;SDS011;3122;48.208;11.174;2024-03-08T00:14:04;27.63;;;14.50;;
6177;SDS011;3122;48.208;11.174;2024-03-08T00:19:06;27.20;;;13.57;;
6177;SDS011;3122;48.208;11.174;2024-03-08T00:24:07;25.40;;;13.50;;
6177;SDS011;3122;48.208;11.174;2024-03-08T00:29:08;23.20;;;13.23;;
6177;SDS011;3122;48.208;11.174;2024-03-08T00:34:08;27.13;;;14.20;;
6177;SDS011;3122;48.208;11.174;2024-03-08T00:39:11;23.93;;;12.97;;
6177;SDS011;3122;48.208;11.174;2024-03-08T00:44:12;24.40;;;13.77;;
6177;SDS011;3122;48.208;11.174;2024-03-08T00:49:12;28.90;;;14.67;;
6177;SDS011;3122;48.208;11.174;2024-03-08T00:54:13;26.53;;;13.63;;
6177;SDS011;3122;48.208;11.174;2024-03-08T00:59:13;22.60;;;12.30;;
6177;SDS011;3122;48.208;11.174;2024-03-08T01:04:14;24.60;;;13.30;;
6177;SDS011;3122;48.208;11.174;2024-03-08T01:09:14;23.77;;;12.80;;
6177;SDS011;3122;48.208;11.174;2024-03-08T01:14:17;25.87;;;13.00;;
6177;SDS011;3122;48.208;11.174;2024-03-08T01:19:17;27.63;;;14.87;;
6177;SDS011;3122;48.208;11.174;2024-03-08T01:24:19;24.57;;;13.03;;
6177;SDS011;3122;48.208;11.174;2024-03-08T01:29:20;22.50;;;12.60;;
6177;SDS011;3122;48.208;11.174;2024-03-08T01:34:20;22.90;;;12.80;;
6177;SDS011;3122;48.208;11.174;2024-03-08T01:39:21;25.70;;;14.00;;
6177;SDS011;3122;48.208;11.174;2024-03-08T01:44:21;21.90;;;12.30;;
6177;SDS011;3122;48.208;11.174;2024-03-08T01:49:22;22.83;;;13.40;;
6177;SDS011;3122;48.208;11.174;2024-03-08T01:54:26;31.07;;;14.50;;
6177;SDS011;3122;48.208;11.174;2024-03-08T01:59:26;24.73;;;13.73;;
6177;SDS011;3122;48.208;11.174;2024-03-08T02:04:28;26.00;;;13.40;;
6177;SDS011;3122;48.208;11.174;2024-03-08T02:09:30;26.77;;;12.90;;
6177;SDS011;3122;48.208;11.174;2024-03-08T02:14:31;27.10;;;12.83;;
6177;SDS011;3122;48.208;11.174;2024-03-08T02:19:32;23.90;;;13.27;;
6177;SDS011;3122;48.208;11.174;2024-03-08T02:24:33;23.40;;;13.03;;
6177;SDS011;3122;48.208;11.174;2024-03-08T02:29:33;21.90;;;12.40;;
6177;SDS011;3122;48.208;11.174;2024-03-08T02:34:34;28.03;;;13.50;;
6177;SDS011;3122;48.208;11.174;2024-03-08T02:39:35;25.70;;;13.97;;
6177;SDS011;3122;48.208;11.174;2024-03-08T02:44:35;22.17;;;11.83;;
6177;SDS011;3122;48.208;11.174;2024-03-08T02:49:36;26.50;;;12.80;;
6177;SDS011;3122;48.208;11.174;2024-03-08T02:54:37;22.73;;;12.73;;
6177;SDS011;3122;48.208;11.174;2024-03-08T02:59:38;23.57;;;12.70;;
6177;SDS011;3122;48.208;11.174;2024-03-08T03:04:40;23.97;;;12.83;;
6177;SDS011;3122;48.208;11.174;2024-03-08T03:09:40;25.83;;;13.10;;
6177;SDS011;3122;48.208;11.174;2024-03-08T03:14:41;23.53;;;13.30;;
6177;SDS011;3122;48.208;11.174;2024-03-08T03:19:41;24.70;;;12.97;;
6177;SDS011;3122;48.208;11.174;2024-03-08T03:24:42;22.03;;;12.93;;
6177;SDS011;3122;48.208;11.174;2024-03-08T03:29:43;23.03;;;13.13;;
6177;SDS011;3122;48.208;11.174;2024-03-08T03:34:47;26.90;;;13.60;;
6177;SDS011;3122;48.208;11.174;2024-03-08T03:39:47;25.50;;;14.00;;
6177;SDS011;3122;48.208;11.174;2024-03-08T03:44:53;23.37;;;13.40;;
6177;SDS011;3122;48.208;11.174;2024-03-08T03:49:53;28.13;;;14.20;;
6177;SDS011;3122;48.208;11.174;2024-03-08T03:54:54;24.10;;;14.27;;
6177;SDS011;3122;48.208;11.174;2024-03-08T03:59:54;25.67;;;13.10;;
6177;SDS011;3122;48.208;11.174;2024-03-08T04:04:55;26.77;;;14.20;;
6177;SDS011;3122;48.208;11.174;2024-03-08T04:09:55;27.30;;;13.80;;
6177;SDS011;3122;48.208;11.174;2024-03-08T04:14:56;29.87;;;14.10;;
6177;SDS011;3122;48.208;11.174;2024-03-08T04:19:56;26.13;;;14.00;;
6177;SDS011;3122;48.208;11.174;2024-03-08T04:24:57;25.10;;;13.63;;
6177;SDS011;3122;48.208;11.174;2024-03-08T04:29:57;26.53;;;14.13;;
6177;SDS011;3122;48.208;11.174;2024-03-08T04:34:59;26.20;;;13.77;;
6177;SDS011;3122;48.208;11.174;2024-03-08T04:40:01;26.13;;;13.50;;
6177;SDS011;3122;48.208;11.174;2024-03-08T04:45:02;28.50;;;14.10;;
6177;SDS011;3122;48.208;11.174;2024-03-08T04:50:04;25.23;;;13.57;;
6177;SDS011;3122;48.208;11.174;2024-03-08T04:55:05;28.80;;;14.27;;
6177;SDS011;3122;48.208;11.174;2024-03-08T05:00:06;28.73;;;14.80;;
6177;SDS011;3122;48.208;11.174;2024-03-08T05:05:11;30.70;;;15.40;;
6177;SDS011;3122;48.208;11.174;2024-03-08T05:10:12;29.23;;;14.70;;
6177;SDS011;3122;48.208;11.174;2024-03-08T05:15:17;29.00;;;15.10;;
6177;SDS011;3122;48.208;11.174;2024-03-08T05:20:17;26.93;;;15.00;;
6177;SDS011;3122;48.208;11.174;2024-03-08T05:25:19;30.17;;;15.20;;
6177;SDS011;3122;48.208;11.174;2024-03-08T05:30:20;30.87;;;16.17;;
6177;SDS011;3122;48.208;11.174;2024-03-08T05:35:21;30.97;;;17.30;;
6177;SDS011;3122;48.208;11.174;2024-03-08T05:40:22;30.53;;;16.83;;
6177;SDS011;3122;48.208;11.174;2024-03-08T05:45:22;30.90;;;16.60;;
6177;SDS011;3122;48.208;11.174;2024-03-08T05:50:25;32.10;;;16.83;;
6177;SDS011;3122;48.208;11.174;2024-03-08T05:55:25;32.93;;;16.93;;
6177;SDS011;3122;48.208;11.174;2024-03-08T06:00:26;34.70;;;17.23;;
6177;SDS011;3122;48.208;11.174;2024-03-08T06:05:27;35.37;;;17.93;;
6177;SDS011;3122;48.208;11.174;2024-03-08T06:10:27;33.90;;;17.37;;
6177;SDS011;3122;48.208;11.174;2024-03-08T06:15:28;36.60;;;18.40;;
6177;SDS011;3122;48.208;11.174;2024-03-08T06:20:28;35.30;;;17.93;;
6177;SDS011;3122;48.208;11.174;2024-03-08T06:25:29;32.80;;;17.37;;
6177;SDS011;3122;48.208;11.174;2024-03-08T06:30:29;37.20;;;19.37;;
6177;SDS011;3122;48.208;11.174;2024-03-08T06:35:31;35.97;;;18.90;;
6177;SDS011;3122;48.208;11.174;2024-03-08T06:40:32;36.57;;;19.50;;
6177;SDS011;3122;48.208;11.174;2024-03-08T06:45:32;35.33;;;19.27;;
6177;SDS011;3122;48.208;11.174;2024-03-08T06:50:33;44.00;;;19.80;;
6177;SDS011;3122;48.208;11.174;2024-03-08T06:55:36;34.27;;;17.70;;
6177;SDS011;3122;48.208;11.174;2024-03-08T07:00:37;36.80;;;17.93;;
6177;SDS011;3122;48.208;11.174;2024-03-08T07:05:37;30.40;;;16.03;;
6177;SDS011;3122;48.208;11.174;2024-03-08T07:10:40;32.60;;;16.83;;
6177;SDS011;3122;48.208;11.174;2024-03-08T07:15:41;38.13;;;15.80;;
6177;SDS011;3122;48.208;11.174;2024-03-08T07:20:43;28.30;;;15.57;;
6177;SDS011;3122;48.208;11.174;2024-03-08T07:25:43;28.33;;;15.30;;
6177;SDS011;3122;48.208;11.174;2024-03-08T07:30:44;29.17;;;16.20;;
6177;SDS011;3122;48.208;11.174;2024-03-08T07:35:44;24.60;;;14.10;;
6177;SDS011;3122;48.208;11.174;2024-03-08T07:40:46;28.90;;;15.40;;
6177;SDS011;3122;48.208;11.174;2024-03-08T07:45:48;29.33;;;15.90;;
6177;SDS011;3122;48.208;11.174;2024-03-08T07:50:48;27.37;;;15.10;;
6177;SDS011;3122;48.208;11.174;2024-03-08T07:55:49;29.27;;;15.83;;
6177;SDS011;3122;48.208;11.174;2024-03-08T08:00:50;28.83;;;15.97;;
6177;SDS011;3122;48.208;11.174;2024-03-08T08:05:50;29.80;;;15.80;;
6177;SDS011;3122;48.208;11.174;2024-03-08T08:10:51;29.60;;;16.13;;
6177;SDS011;3122;48.208;11.174;2024-03-08T08:15:52;32.83;;;18.30;;
6177;SDS011;3122;48.208;11.174;2024-03-08T08:20:52;47.00;;;24.90;;
6177;SDS011;3122;48.208;11.174;2024-03-08T08:25:53;45.60;;;22.53;;
6177;SDS011;3122;48.208;11.174;2024-03-08T08:30:53;34.43;;;18.00;;
6177;SDS011;3122;48.208;11.174;2024-03-08T08:35:54;31.73;;;17.00;;
6177;SDS011;3122;48.208;11.174;2024-03-08T08:40:54;31.17;;;15.60;;
6177;SDS011;3122;48.208;11.174;2024-03-08T08:45:56;31.37;;;15.93;;
6177;SDS011;3122;48.208;11.174;2024-03-08T08:50:56;30.40;;;16.20;;
6177;SDS011;3122;48.208;11.174;2024-03-08T08:55:57;33.80;;;17.20;;
6177;SDS011;3122;48.208;11.174;2024-03-08T09:00:57;31.70;;;16.60;;
6177;SDS011;3122;48.208;11.174;2024-03-08T09:05:59;33.57;;;17.20;;
6177;SDS011;3122;48.208;11.174;2024-03-08T09:10:59;28.60;;;15.70;;
6177;SDS011;3122;48.208;11.174;2024-03-08T09:16:00;31.33;;;17.10;;
6177;SDS011;3122;48.208;11.174;2024-03-08T09:21:03;31.37;;;16.40;;
6177;SDS011;3122;48.208;11.174;2024-03-08T09:26:05;34.07;;;17.23;;
6177;SDS011;3122;48.208;11.174;2024-03-08T09:31:09;31.07;;;16.30;;
6177;SDS011;3122;48.208;11.174;2024-03-08T09:36:11;36.57;;;18.80;;
6177;SDS011;3122;48.208;11.174;2024-03-08T09:41:12;31.77;;;17.13;;
6177;SDS011;3122;48.208;11.174;2024-03-08T09:46:13;30.97;;;17.27;;
6177;SDS011;3122;48.208;11.174;2024-03-08T09:51:15;32.10;;;16.87;;
6177;SDS011;3122;48.208;11.174;2024-03-08T09:56:16;40.30;;;19.13;;
6177;SDS011;3122;48.208;11.174;2024-03-08T10:01:17;35.77;;;18.47;;
6177;SDS011;3122;48.208;11.174;2024-03-08T10:06:22;39.70;;;20.00;;
6177;SDS011;3122;48.208;11.174;2024-03-08T10:11:24;40.63;;;19.00;;
6177;SDS011;3122;48.208;11.174;2024-03-08T10:16:27;48.10;;;21.20;;
6177;SDS011;3122;48.208;11.174;2024-03-08T10:21:28;55.00;;;23.77;;
6177;SDS011;3122;48.208;11.174;2024-03-08T10:26:29;37.30;;;18.70;;
6177;SDS011;3122;48.208;11.174;2024-03-08T10:31:30;34.53;;;17.90;;
6177;SDS011;3122;48.208;11.174;2024-03-08T10:36:33;36.97;;;18.67;;
6177;SDS011;3122;48.208;11.174;2024-03-08T10:41:37;37.27;;;19.73;;
6177;SDS011;3122;48.208;11.174;2024-03-08T10:52:05;38.07;;;20.37;;
6177;SDS011;3122;48.208;11.174;2024-03-08T10:57:08;36.27;;;19.30;;
6177;SDS011;3122;48.208;11.174;2024-03-08T11:02:11;33.93;;;18.60;;
6177;SDS011;3122;48.208;11.174;2024-03-08T11:07:12;36.43;;;19.70;;
6177;SDS011;3122;48.208;11.174;2024-03-08T11:18:06;34.97;;;18.00;;
6177;SDS011;3122;48.208;11.174;2024-03-08T11:28:07;29.30;;;16.20;;
6177;SDS011;3122;48.208;11.174;2024-03-08T11:33:19;34.83;;;17.53;;
6177;SDS011;3122;48.208;11.174;2024-03-08T11:38:19;31.80;;;17.57;;
6177;SDS011;3122;48.208;11.174;2024-03-08T11:43:20;34.40;;;18.17;;
6177;SDS011;3122;48.208;11.174;2024-03-08T11:48:20;31.33;;;16.80;;
6177;SDS011;3122;48.208;11.174;2024-03-08T11:53:21;26.47;;;15.77;;
6177;SDS011;3122;48.208;11.174;2024-03-08T11:58:21;35.70;;;18.50;;
6177;SDS011;3122;48.208;11.174;2024-03-08T12:03:22;27.00;;;16.13;;
6177;SDS011;3122;48.208;11.174;2024-03-08T12:08:22;29.90;;;15.90;;
6177;SDS011;3122;48.208;11.174;2024-03-08T12:18:24;28.93;;;15.73;;
6177;SDS011;3122;48.208;11.174;2024-03-08T12:23:28;24.63;;;14.10;;
6177;SDS011;3122;48.208;11.174;2024-03-08T12:28:29;24.70;;;14.60;;
6177;SDS011;3122;48.208;11.174;2024-03-08T12:33:29;25.20;;;14.83;;
6177;SDS011;3122;48.208;11.174;2024-03-08T12:38:30;28.17;;;15.00;;
6177;SDS011;3122;48.208;11.174;2024-03-08T12:43:32;23.03;;;14.20;;
6177;SDS011;3122;48.208;11.174;2024-03-08T12:48:36;23.03;;;14.10;;
6177;SDS011;3122;48.208;11.174;2024-03-08T12:53:40;25.00;;;15.50;;
6177;SDS011;3122;48.208;11.174;2024-03-08T12:58:44;27.97;;;15.27;;
6177;SDS011;3122;48.208;11.174;2024-03-08T13:03:44;29.53;;;16.90;;
6177;SDS011;3122;48.208;11.174;2024-03-08T13:08:46;31.53;;;17.00;;
6177;SDS011;3122;48.208;11.174;2024-03-08T13:13:47;31.13;;;16.73;;
6177;SDS011;3122;48.208;11.174;2024-03-08T13:18:48;27.70;;;16.60;;
6177;SDS011;3122;48.208;11.174;2024-03-08T13:23:49;27.30;;;15.80;;
6177;SDS011;3122;48.208;11.174;2024-03-08T13:28:49;29.37;;;16.97;;
6177;SDS011;3122;48.208;11.174;2024-03-08T13:33:53;27.63;;;16.70;;
6177;SDS011;3122;48.208;11.174;2024-03-08T13:38:58;27.83;;;16.33;;
6177;SDS011;3122;48.208;11.174;2024-03-08T13:43:59;24.97;;;14.87;;
6177;SDS011;3122;48.208;11.174;2024-03-08T13:49:03;28.67;;;16.00;;
6177;SDS011;3122;48.208;11.174;2024-03-08T13:54:06;26.23;;;15.57;;
6177;SDS011;3122;48.208;11.174;2024-03-08T13:59:06;24.53;;;16.00;;
6177;SDS011;3122;48.208;11.174;2024-03-08T14:04:09;26.07;;;14.80;;
6177;SDS011;3122;48.208;11.174;2024-03-08T14:09:13;26.03;;;14.50;;
6177;SDS011;3122;48.208;11.174;2024-03-08T14:14:16;22.13;;;13.90;;
6177;SDS011;3122;48.208;11.174;2024-03-08T14:19:18;23.73;;;14.73;;
6177;SDS011;3122;48.208;11.174;2024-03-08T14:24:19;23.50;;;14.40;;
6177;SDS011;3122;48.208;11.174;2024-03-08T14:29:20;21.23;;;13.90;;
6177;SDS011;3122;48.208;11.174;2024-03-08T14:34:20;22.60;;;14.10;;
6177;SDS011;3122;48.208;11.174;2024-03-08T14:39:21;22.13;;;13.63;;
6177;SDS011;3122;48.208;11.174;2024-03-08T14:44:26;24.03;;;14.10;;
6177;SDS011;3122;48.208;11.174;2024-03-08T14:49:27;26.00;;;15.17;;
6177;SDS011;3122;48.208;11.174;2024-03-08T14:54:29;21.67;;;13.20;;
6177;SDS011;3122;48.208;11.174;2024-03-08T14:59:29;21.30;;;12.50;;
6177;SDS011;3122;48.208;11.174;2024-03-08T15:04:30;19.90;;;13.23;;
6177;SDS011;3122;48.208;11.174;2024-03-08T15:09:31;20.73;;;12.83;;
6177;SDS011;3122;48.208;11.174;2024-03-08T15:14:39;18.57;;;11.80;;
6177;SDS011;3122;48.208;11.174;2024-03-08T15:19:40;19.43;;;12.60;;
6177;SDS011;3122;48.208;11.174;2024-03-08T15:24:40;19.57;;;12.27;;
6177;SDS011;3122;48.208;11.174;2024-03-08T15:29:43;22.20;;;13.03;;
6177;SDS011;3122;48.208;11.174;2024-03-08T15:34:47;17.60;;;12.30;;
6177;SDS011;3122;48.208;11.174;2024-03-08T15:39:48;19.97;;;12.50;;
6177;SDS011;3122;48.208;11.174;2024-03-08T15:44:49;21.97;;;11.60;;
6177;SDS011;3122;48.208;11.174;2024-03-08T15:49:49;25.10;;;13.03;;
6177;SDS011;3122;48.208;11.174;2024-03-08T15:54:51;21.63;;;12.80;;
6177;SDS011;3122;48.208;11.174;2024-03-08T15:59:51;20.93;;;12.07;;
6177;SDS011;3122;48.208;11.174;2024-03-08T16:04:55;18.67;;;12.27;;
6177;SDS011;3122;48.208;11.174;2024-03-08T16:09:55;26.40;;;15.50;;
6177;SDS011;3122;48.208;11.174;2024-03-08T16:14:56;23.00;;;13.20;;
6177;SDS011;3122;48.208;11.174;2024-03-08T16:19:57;16.93;;;10.80;;
6177;SDS011;3122;48.208;11.174;2024-03-08T16:24:59;19.10;;;11.60;;
6177;SDS011;3122;48.208;11.174;2024-03-08T16:29:59;23.40;;;12.37;;
6177;SDS011;3122;48.208;11.174;2024-03-08T16:35:00;30.70;;;17.87;;
6177;SDS011;3122;48.208;11.174;2024-03-08T16:40:00;21.80;;;13.20;;
6177;SDS011;3122;48.208;11.174;2024-03-08T16:45:01;48.63;;;22.57;;
6177;SDS011;3122;48.208;11.174;2024-03-08T16:50:02;39.60;;;19.93;;
6177;SDS011;3122;48.208;11.174;2024-03-08T16:55:06;24.80;;;13.23;;
6177;SDS011;3122;48.208;11.174;2024-03-08T17:00:17;26.23;;;14.23;;
6177;SDS011;3122;48.208;11.174;2024-03-08T17:05:22;30.70;;;16.00;;
6177;SDS011;3122;48.208;11.174;2024-03-08T17:10:27;24.50;;;15.20;;
6177;SDS011;3122;48.208;11.174;2024-03-08T17:15:29;22.30;;;13.17;;
6177;SDS011;3122;48.208;11.174;2024-03-08T17:20:32;22.67;;;13.13;;
6177;SDS011;3122;48.208;11.174;2024-03-08T17:25:36;19.93;;;12.90;;
6177;SDS011;3122;48.208;11.174;2024-03-08T17:30:37;22.80;;;13.13;;
6177;SDS011;3122;48.208;11.174;2024-03-08T17:35:40;21.10;;;13.03;;
6177;SDS011;3122;48.208;11.174;2024-03-08T17:40:42;24.27;;;13.87;;
6177;SDS011;3122;48.208;11.174;2024-03-08T17:45:43;22.80;;;13.50;;
6177;SDS011;3122;48.208;11.174;2024-03-08T17:50:46;23.67;;;13.40;;
6177;SDS011;3122;48.208;11.174;2024-03-08T17:55:49;21.73;;;12.73;;
6177;SDS011;3122;48.208;11.174;2024-03-08T18:00:51;27.50;;;14.83;;
6177;SDS011;3122;48.208;11.174;2024-03-08T18:05:54;33.10;;;15.47;;
6177;SDS011;3122;48.208;11.174;2024-03-08T18:10:54;23.90;;;13.10;;
6177;SDS011;3122;48.208;11.174;2024-03-08T18:15:55;23.37;;;15.20;;
6177;SDS011;3122;48.208;11.174;2024-03-08T18:20:56;23.20;;;13.57;;
6177;SDS011;3122;48.208;11.174;2024-03-08T18:25:56;22.63;;;13.33;;
6177;SDS011;3122;48.208;11.174;2024-03-08T18:30:57;23.50;;;13.93;;
6177;SDS011;3122;48.208;11.174;2024-03-08T18:35:58;22.10;;;13.73;;
6177;SDS011;3122;48.208;11.174;2024-03-08T18:40:59;21.97;;;13.37;;
6177;SDS011;3122;48.208;11.174;2024-03-08T18:46:00;22.60;;;13.33;;
6177;SDS011;3122;48.208;11.174;2024-03-08T18:51:01;21.70;;;12.80;;
6177;SDS011;3122;48.208;11.174;2024-03-08T18:56:02;24.83;;;14.13;;
6177;SDS011;3122;48.208;11.174;2024-03-08T19:01:02;26.43;;;14.80;;
6177;SDS011;3122;48.208;11.174;2024-03-08T19:06:05;26.87;;;14.60;;
6177;SDS011;3122;48.208;11.174;2024-03-08T19:11:06;25.57;;;14.20;;
6177;SDS011;3122;48.208;11.174;2024-03-08T19:16:07;22.60;;;13.40;;
6177;SDS011;3122;48.208;11.174;2024-03-08T19:21:14;27.63;;;14.57;;
6177;SDS011;3122;48.208;11.174;2024-03-08T19:26:15;24.30;;;13.10;;
6177;SDS011;3122;48.208;11.174;2024-03-08T19:31:22;25.50;;;14.80;;
6177;SDS011;3122;48.208;11.174;2024-03-08T19:36:22;25.40;;;13.37;;
6177;SDS011;3122;48.208;11.174;2024-03-08T19:41:23;30.53;;;13.33;;
6177;SDS011;3122;48.208;11.174;2024-03-08T19:46:23;24.13;;;13.70;;
6177;SDS011;3122;48.208;11.174;2024-03-08T19:51:24;25.63;;;12.63;;
6177;SDS011;3122;48.208;11.174;2024-03-08T19:56:24;38.97;;;18.07;;
6177;SDS011;3122;48.208;11.174;2024-03-08T20:01:25;52.20;;;21.53;;
6177;SDS011;3122;48.208;11.174;2024-03-08T20:06:26;26.50;;;13.97;;
6177;SDS011;3122;48.208;11.174;2024-03-08T20:11:26;22.90;;;12.83;;
6177;SDS011;3122;48.208;11.174;2024-03-08T20:16:27;23.87;;;14.03;;
6177;SDS011;3122;48.208;11.174;2024-03-08T20:21:28;21.27;;;12.40;;
6177;SDS011;3122;48.208;11.174;2024-03-08T20:26:28;19.63;;;11.77;;
6177;SDS011;3122;48.208;11.174;2024-03-08T20:31:29;23.00;;;12.23;;
6177;SDS011;3122;48.208;11.174;2024-03-08T20:36:31;20.03;;;12.33;;
6177;SDS011;3122;48.208;11.174;2024-03-08T20:41:32;22.20;;;11.57;;
6177;SDS011;3122;48.208;11.174;2024-03-08T20:46:33;21.10;;;12.30;;
6177;SDS011;3122;48.208;11.174;2024-03-08T20:51:34;19.63;;;12.10;;
6177;SDS011;3122;48.208;11.174;2024-03-08T20:56:35;21.23;;;12.10;;
6177;SDS011;3122;48.208;11.174;2024-03-08T21:01:36;19.37;;;11.33;;
6177;SDS011;3122;48.208;11.174;2024-03-08T21:06:36;20.17;;;11.57;;
6177;SDS011;3122;48.208;11.174;2024-03-08T21:11:37;21.60;;;12.70;;
6177;SDS011;3122;48.208;11.174;2024-03-08T21:16:40;76.83;;;30.70;;
6177;SDS011;3122;48.208;11.174;2024-03-08T21:21:41;62.00;;;28.00;;
6177;SDS011;3122;48.208;11.174;2024-03-08T21:26:42;35.77;;;18.37;;
6177;SDS011;3122;48.208;11.174;2024-03-08T21:31:43;58.60;;;28.97;;
6177;SDS011;3122;48.208;11.174;2024-03-08T21:36:43;84.20;;;39.50;;
6177;SDS011;3122;48.208;11.174;2024-03-08T21:41:45;76.07;;;35.10;;
6177;SDS011;3122;48.208;11.174;2024-03-08T21:46:46;23.03;;;12.90;;
6177;SDS011;3122;48.208;11.174;2024-03-08T21:51:48;20.57;;;11.67;;
6177;SDS011;3122;48.208;11.174;2024-03-08T21:56:51;21.17;;;11.97;;
6177;SDS011;3122;48.208;11.174;2024-03-08T22:01:51;21.70;;;14.20;;
6177;SDS011;3122;48.208;11.174;2024-03-08T22:06:52;20.50;;;13.07;;
6177;SDS011;3122;48.208;11.174;2024-03-08T22:11:56;19.53;;;11.97;;
6177;SDS011;3122;48.208;11.174;2024-03-08T22:16:57;18.97;;;11.00;;
6177;SDS011;3122;48.208;11.174;2024-03-08T22:21:57;17.20;;;10.40;;
6177;SDS011;3122;48.208;11.174;2024-03-08T22:26:59;20.77;;;11.23;;
6177;SDS011;3122;48.208;11.174;2024-03-08T22:32:00;18.17;;;11.83;;
6177;SDS011;3122;48.208;11.174;2024-03-08T22:37:01;23.00;;;12.17;;
6177;SDS011;3122;48.208;11.174;2024-03-08T22:42:04;17.43;;;10.50;;
6177;SDS011;3122;48.208;11.174;2024-03-08T22:47:05;18.70;;;11.00;;
6177;SDS011;3122;48.208;11.174;2024-03-08T22:52:07;15.80;;;9.47;;
6177;SDS011;3122;48.208;11.174;2024-03-08T22:57:07;16.70;;;10.70;;
6177;SDS011;3122;48.208;11.174;2024-03-08T23:02:09;17.23;;;10.03;;
6177;SDS011;3122;48.208;11.174;2024-03-08T23:07:10;17.83;;;10.20;;
6177;SDS011;3122;48.208;11.174;2024-03-08T23:12:10;19.33;;;11.17;;
6177;SDS011;3122;48.208;11.174;2024-03-08T23:17:11;18.40;;;10.47;;
6177;SDS011;3122;48.208;11.174;2024-03-08T23:22:13;18.10;;;10.70;;
6177;SDS011;3122;48.208;11.174;2024-03-08T23:27:14;14.83;;;9.50;;
6177;SDS011;3122;48.208;11.174;2024-03-08T23:32:14;15.43;;;9.70;;
6177;SDS011;3122;48.208;11.174;2024-03-08T23:37:16;16.23;;;10.03;;
6177;SDS011;3122;48.208;11.174;2024-03-08T23:42:16;17.40;;;10.60;;
6177;SDS011;3122;48.208;11.174;2024-03-08T23:47:17;18.53;;;10.40;;
6177;SDS011;3122;48.208;11.174;2024-03-08T23:52:18;14.70;;;9.50;;
6177;SDS011;3122;48.208;11.174;2024-03-08T23:57:19;19.00;;;10.90;;
